createdAt,value
2019-02-07T00:01:32.263Z,15.67
2019-02-07T00:04:00.907Z,12.13
2019-02-07T00:06:29.362Z,10.90
2019-02-07T00:08:57.889Z,15.40
2019-02-07T00:11:26.278Z,14.53
2019-02-07T00:13:54.707Z,13.07
2019-02-07T00:16:23.523Z,15.83
2019-02-07T00:18:52.005Z,12.87
2019-02-07T00:21:20.476Z,14.63
2019-02-07T00:23:48.940Z,14.57
2019-02-07T00:26:17.396Z,12.97
2019-02-07T00:28:45.903Z,17.17
2019-02-07T00:31:14.283Z,15.67
2019-02-07T00:33:42.767Z,13.13
2019-02-07T00:36:11.202Z,15.43
2019-02-07T00:38:39.664Z,13.13
2019-02-07T00:41:08.145Z,13.13
2019-02-07T00:43:36.643Z,14.33
2019-02-07T00:46:05.152Z,13.27
2019-02-07T00:48:33.711Z,16.47
2019-02-07T00:51:02.155Z,13.93
2019-02-07T00:53:30.597Z,13.77
2019-02-07T00:55:59.069Z,14.47
2019-02-07T00:58:27.525Z,14.87
2019-02-07T01:00:55.901Z,15.90
2019-02-07T01:03:24.830Z,14.03
2019-02-07T01:05:53.300Z,15.77
2019-02-07T01:08:21.796Z,14.13
2019-02-07T01:10:50.698Z,15.53
2019-02-07T01:13:19.171Z,14.57
2019-02-07T01:15:47.611Z,12.80
2019-02-07T01:18:16.076Z,14.13
2019-02-07T01:20:44.524Z,17.63
2019-02-07T01:23:12.984Z,13.83
2019-02-07T01:25:41.447Z,15.50
2019-02-07T01:28:09.994Z,14.73
2019-02-07T01:30:38.471Z,16.93
2019-02-07T01:33:06.931Z,12.10
2019-02-07T01:35:35.956Z,16.43
2019-02-07T01:38:05.495Z,14.37
2019-02-07T01:40:33.999Z,14.90
2019-02-07T01:43:02.447Z,14.03
2019-02-07T01:45:30.935Z,15.63
2019-02-07T01:47:59.371Z,15.23
2019-02-07T01:50:27.814Z,14.50
2019-02-07T01:52:56.335Z,16.43
2019-02-07T01:55:24.822Z,17.50
2019-02-07T01:57:53.315Z,14.80
2019-02-07T02:00:21.783Z,18.37
2019-02-07T02:02:50.319Z,13.70
2019-02-07T02:05:19.081Z,15.73
2019-02-07T02:07:48.111Z,16.27
2019-02-07T02:10:18.258Z,13.07
2019-02-07T02:12:46.701Z,14.27
2019-02-07T02:15:23.954Z,15.73
2019-02-07T02:17:47.152Z,18.50
2019-02-07T02:20:15.815Z,16.50
2019-02-07T02:22:44.624Z,16.80
2019-02-07T02:25:13.173Z,16.63
2019-02-07T02:27:41.684Z,16.27
2019-02-07T02:30:12.946Z,17.23
2019-02-07T02:32:41.399Z,17.53
2019-02-07T02:35:09.832Z,18.23
2019-02-07T02:37:38.651Z,21.63
2019-02-07T02:40:07.247Z,17.57
2019-02-07T02:42:35.736Z,18.63
2019-02-07T02:45:04.936Z,19.00
2019-02-07T02:47:33.393Z,20.37
2019-02-07T02:50:01.741Z,18.60
2019-02-07T02:52:30.131Z,19.43
2019-02-07T02:54:59.090Z,19.57
2019-02-07T02:57:27.532Z,18.73
2019-02-07T02:59:55.993Z,18.33
2019-02-07T03:02:43.587Z,21.53
2019-02-07T03:05:43.632Z,19.17
2019-02-07T03:08:31.221Z,20.13
2019-02-07T03:11:18.833Z,25.27
2019-02-07T03:14:06.448Z,22.47
2019-02-07T03:16:57.087Z,20.20
2019-02-07T03:19:35.927Z,18.87
2019-02-07T03:22:26.607Z,19.07
2019-02-07T03:25:26.305Z,17.40
2019-02-07T03:28:19.771Z,21.93
2019-02-07T03:31:18.161Z,18.93
2019-02-07T03:34:05.675Z,19.50
2019-02-07T03:36:59.163Z,24.13
2019-02-07T03:39:49.803Z,21.90
2019-02-07T03:42:40.213Z,22.93
2019-02-07T03:45:26.635Z,19.87
2019-02-07T03:48:05.920Z,20.23
2019-02-07T03:50:53.421Z,21.67
2019-02-07T03:53:52.921Z,19.23
2019-02-07T03:56:43.577Z,21.97
2019-02-07T03:59:24.252Z,19.03
2019-02-07T04:02:10.403Z,16.97
2019-02-07T04:04:57.999Z,19.37
2019-02-07T04:07:57.749Z,21.47
2019-02-07T04:10:33.836Z,21.07
2019-02-07T04:13:21.439Z,19.57
2019-02-07T04:16:15.330Z,18.93
2019-02-07T04:18:58.503Z,19.63
2019-02-07T04:21:49.446Z,20.37
2019-02-07T04:24:35.804Z,20.37
2019-02-07T04:27:14.503Z,19.07
2019-02-07T04:30:02.443Z,21.83
2019-02-07T04:33:05.457Z,17.83
2019-02-07T04:36:04.726Z,21.27
2019-02-07T04:38:50.907Z,21.47
2019-02-07T04:41:56.829Z,18.00
2019-02-07T04:44:52.991Z,23.33
2019-02-07T04:47:39.295Z,18.47
2019-02-07T04:50:26.533Z,19.20
2019-02-07T04:53:15.283Z,19.27
2019-02-07T04:56:02.884Z,20.33
2019-02-07T04:58:49.389Z,16.57
2019-02-07T05:01:40.303Z,17.87
2019-02-07T05:04:27.910Z,17.30
2019-02-07T05:07:09.715Z,18.97
2019-02-07T05:10:15.647Z,17.27
2019-02-07T05:13:01.976Z,15.77
2019-02-07T05:15:49.609Z,18.67
2019-02-07T05:18:35.864Z,18.97
2019-02-07T05:21:29.833Z,15.87
2019-02-07T05:24:07.432Z,14.00
2019-02-07T05:26:53.760Z,16.13
2019-02-07T05:29:32.264Z,14.63
2019-02-07T05:32:19.885Z,13.20
2019-02-07T05:35:08.787Z,13.70
2019-02-07T05:38:11.774Z,13.93
2019-02-07T05:41:02.451Z,12.30
2019-02-07T05:43:51.608Z,14.97
2019-02-07T05:46:30.912Z,14.97
2019-02-07T05:49:30.560Z,11.80
2019-02-07T05:52:18.241Z,12.67
2019-02-07T05:55:06.322Z,15.37
2019-02-07T05:58:03.115Z,13.30
2019-02-07T06:01:08.973Z,15.30
2019-02-07T06:03:50.194Z,12.47
2019-02-07T06:06:37.797Z,14.17
2019-02-07T06:09:16.572Z,14.90
2019-02-07T06:12:02.808Z,16.37
2019-02-07T06:14:49.423Z,15.30
2019-02-07T06:17:43.287Z,16.67
2019-02-07T06:20:42.969Z,16.30
2019-02-07T06:23:29.286Z,18.00
2019-02-07T06:26:12.164Z,17.90
2019-02-07T06:28:58.360Z,19.77
2019-02-07T06:31:49.032Z,18.87
2019-02-07T06:34:36.619Z,19.27
2019-02-07T06:37:17.708Z,19.53
2019-02-07T06:40:08.604Z,20.35
2019-02-07T06:42:56.261Z,18.53
2019-02-07T06:45:46.898Z,18.50
2019-02-07T06:48:24.190Z,22.37
2019-02-07T06:51:30.250Z,19.37
2019-02-07T06:54:07.512Z,20.70
2019-02-07T06:57:02.148Z,20.07
2019-02-07T06:59:48.613Z,18.10
2019-02-07T07:02:27.950Z,18.97
2019-02-07T07:05:21.603Z,19.63
2019-02-07T07:08:07.916Z,17.73
2019-02-07T07:10:55.559Z,21.23
2019-02-07T07:13:42.135Z,20.80
2019-02-07T07:16:33.009Z,18.67
2019-02-07T07:19:29.979Z,27.37
2019-02-07T07:22:16.512Z,19.43
2019-02-07T07:25:03.044Z,17.07
2019-02-07T07:27:54.940Z,18.83
2019-02-07T07:30:41.092Z,21.07
2019-02-07T07:33:32.276Z,18.07
2019-02-07T07:36:19.169Z,19.47
2019-02-07T07:39:05.491Z,18.50
2019-02-07T07:41:48.555Z,19.10
2019-02-07T07:44:32.047Z,20.17
2019-02-07T07:47:18.248Z,21.23
2019-02-07T07:50:18.355Z,18.37
2019-02-07T07:53:08.737Z,17.77
2019-02-07T07:56:03.025Z,18.20
2019-02-07T07:59:02.896Z,20.57
2019-02-07T08:01:59.941Z,20.83
2019-02-07T08:04:56.029Z,18.97
2019-02-07T08:07:46.465Z,19.83
2019-02-07T08:10:43.089Z,21.57
2019-02-07T08:13:25.432Z,19.27
2019-02-07T08:16:04.305Z,21.13
2019-02-07T08:18:46.689Z,18.03
2019-02-07T08:21:49.698Z,22.90
2019-02-07T08:24:27.232Z,22.17
2019-02-07T08:27:13.545Z,20.60
2019-02-07T08:29:53.265Z,17.63
2019-02-07T08:32:36.804Z,17.60
2019-02-07T08:35:34.179Z,18.60
2019-02-07T08:38:24.977Z,17.70
2019-02-07T08:41:20.539Z,18.57
2019-02-07T08:44:14.039Z,19.70
2019-02-07T08:47:03.482Z,17.70
2019-02-07T08:49:59.991Z,15.93
2019-02-07T08:52:44.435Z,18.17
2019-02-07T08:55:28.404Z,18.03
2019-02-07T08:58:10.552Z,17.27
2019-02-07T09:00:52.480Z,15.60
2019-02-07T09:03:38.897Z,16.40
2019-02-07T09:06:19.495Z,18.33
2019-02-07T09:09:19.262Z,13.07
2019-02-07T09:11:56.860Z,14.50
2019-02-07T09:14:51.990Z,12.23
2019-02-07T09:17:28.992Z,14.30
2019-02-07T09:20:25.501Z,13.73
2019-02-07T09:23:11.847Z,13.50
2019-02-07T09:25:58.491Z,15.47
2019-02-07T09:28:49.648Z,17.93
2019-02-07T09:31:49.624Z,16.00
2019-02-07T09:34:41.429Z,11.17
2019-02-07T09:37:44.501Z,14.87
2019-02-07T09:40:30.876Z,20.03
2019-02-07T09:43:15.175Z,17.03
2019-02-07T09:46:00.633Z,17.30
2019-02-07T09:48:44.449Z,13.20
2019-02-07T09:51:22.229Z,15.17
2019-02-07T09:54:02.729Z,15.13
2019-02-07T09:56:50.947Z,13.77
2019-02-07T09:59:31.815Z,15.80
2019-02-07T10:02:24.156Z,13.87
2019-02-07T10:05:11.550Z,15.07
2019-02-07T10:07:49.664Z,12.87
2019-02-07T10:10:37.284Z,14.33
2019-02-07T10:13:23.896Z,12.83
2019-02-07T10:16:10.645Z,10.10
2019-02-07T10:18:59.160Z,10.77
2019-02-07T10:21:55.637Z,10.67
2019-02-07T10:24:49.142Z,13.10
2019-02-07T10:27:31.709Z,8.80
2019-02-07T10:30:22.080Z,12.33
2019-02-07T10:33:03.122Z,12.77
2019-02-07T10:35:53.553Z,12.87
2019-02-07T10:38:38.159Z,12.00
2019-02-07T10:41:28.525Z,17.03
2019-02-07T10:44:14.932Z,12.77
2019-02-07T10:47:01.395Z,18.83
2019-02-07T10:49:43.959Z,17.73
2019-02-07T10:52:21.099Z,12.67
2019-02-07T10:55:08.728Z,18.07
2019-02-07T10:58:05.506Z,17.70
2019-02-07T11:01:05.212Z,22.60
2019-02-07T11:04:04.792Z,20.67
2019-02-07T11:06:52.561Z,19.93
2019-02-07T11:09:43.240Z,20.43
2019-02-07T11:12:23.579Z,15.97
2019-02-07T11:15:26.216Z,14.37
2019-02-07T11:18:12.676Z,25.67
2019-02-07T11:20:54.248Z,16.67
2019-02-07T11:23:43.376Z,12.87
2019-02-07T11:26:30.024Z,11.20
2019-02-07T11:29:16.768Z,25.27
2019-02-07T11:31:58.875Z,21.53
2019-02-07T11:34:46.605Z,16.33
2019-02-07T11:37:33.109Z,16.77
2019-02-07T11:40:23.814Z,13.63
2019-02-07T11:43:20.459Z,15.13
2019-02-07T11:46:08.084Z,24.00
2019-02-07T11:49:06.864Z,19.17
2019-02-07T11:51:52.923Z,17.47
2019-02-07T11:54:39.508Z,23.20
2019-02-07T11:57:26.190Z,18.10
2019-02-07T12:00:20.028Z,15.43
2019-02-07T12:03:13.536Z,21.90
2019-02-07T12:06:00.387Z,19.83
2019-02-07T12:08:46.540Z,21.20
2019-02-07T12:11:33.276Z,13.67
2019-02-07T12:14:36.381Z,21.77
2019-02-07T12:17:30.331Z,17.03
2019-02-07T12:20:16.415Z,12.30
2019-02-07T12:23:04.008Z,20.10
2019-02-07T12:25:50.756Z,19.33
2019-02-07T12:28:44.429Z,14.33
2019-02-07T12:31:21.960Z,13.10
2019-02-07T12:34:00.573Z,17.87
2019-02-07T12:39:44.844Z,13.93
2019-02-07T12:42:43.408Z,15.67
2019-02-07T12:45:33.832Z,15.13
2019-02-07T12:48:21.252Z,22.40
2019-02-07T12:51:21.203Z,17.20
2019-02-07T12:54:07.750Z,24.90
2019-02-07T12:57:01.764Z,16.53
2019-02-07T12:59:43.763Z,13.90
2019-02-07T13:02:25.625Z,16.07
2019-02-07T13:05:12.219Z,17.20
2019-02-07T13:08:02.680Z,16.83
2019-02-07T13:10:49.032Z,15.20
2019-02-07T13:13:35.806Z,16.47
2019-02-07T13:16:21.664Z,16.33
2019-02-07T13:19:07.475Z,20.87
2019-02-07T13:21:53.716Z,20.33
2019-02-07T13:24:41.457Z,15.33
2019-02-07T13:27:27.740Z,21.37
2019-02-07T13:33:14.516Z,14.73
2019-02-07T13:35:59.769Z,16.40
2019-02-07T13:38:46.721Z,12.10
2019-02-07T13:41:32.804Z,17.30
2019-02-07T13:44:26.507Z,11.50
2019-02-07T13:55:43.200Z,17.43
2019-02-07T13:58:46.231Z,15.43
2019-02-07T14:01:31.659Z,12.70
2019-02-07T14:04:31.006Z,12.67
2019-02-07T14:07:18.533Z,12.87
2019-02-07T14:10:21.245Z,15.47
2019-02-07T14:13:07.690Z,13.33
2019-02-07T14:16:01.369Z,7.70
2019-02-07T14:19:03.184Z,10.77
2019-02-07T14:21:50.478Z,9.33
2019-02-07T14:24:38.212Z,13.10
2019-02-07T14:27:20.922Z,12.17
2019-02-07T14:29:56.950Z,12.67
2019-02-07T14:32:45.739Z,9.87
2019-02-07T14:35:32.945Z,15.83
2019-02-07T14:38:09.108Z,14.40
2019-02-07T14:40:49.204Z,12.87
2019-02-07T14:43:38.179Z,11.90
2019-02-07T14:46:24.865Z,11.90
2019-02-07T14:48:53.421Z,15.33
2019-02-07T14:51:21.875Z,13.17
2019-02-07T14:53:50.336Z,11.60
2019-02-07T14:56:18.913Z,16.57
2019-02-07T14:58:47.767Z,10.50
2019-02-07T15:01:16.305Z,15.47
2019-02-07T15:03:44.763Z,10.63
2019-02-07T15:06:13.244Z,10.23
2019-02-07T15:08:42.355Z,11.30
2019-02-07T15:11:10.868Z,10.77
2019-02-07T15:13:39.320Z,9.73
2019-02-07T15:16:08.052Z,8.77
2019-02-07T15:18:36.552Z,8.30
2019-02-07T15:21:05.035Z,18.73
2019-02-07T15:23:33.488Z,12.50
2019-02-07T15:26:04.013Z,9.77
2019-02-07T15:28:32.408Z,7.93
2019-02-07T15:31:01.153Z,14.00
2019-02-07T15:33:29.680Z,11.53
2019-02-07T15:35:58.181Z,8.87
2019-02-07T15:38:26.702Z,10.70
2019-02-07T15:40:55.176Z,11.17
2019-02-07T15:43:23.737Z,12.53
2019-02-07T15:45:52.326Z,8.03
2019-02-07T15:48:21.044Z,9.80
2019-02-07T15:50:50.097Z,8.00
2019-02-07T15:53:19.332Z,10.77
2019-02-07T15:55:47.803Z,12.47
2019-02-07T15:58:17.729Z,9.17
2019-02-07T16:01:03.929Z,10.47
2019-02-07T16:03:41.750Z,6.30
2019-02-07T16:06:10.378Z,13.80
2019-02-07T16:08:38.891Z,6.70
2019-02-07T16:11:07.337Z,7.03
2019-02-07T16:13:36.180Z,11.17
2019-02-07T16:16:04.744Z,10.93
2019-02-07T16:18:33.221Z,7.57
2019-02-07T16:21:01.783Z,11.73
2019-02-07T16:23:30.247Z,9.60
2019-02-07T16:25:59.435Z,8.27
2019-02-07T16:28:28.405Z,10.47
2019-02-07T16:30:56.918Z,13.80
2019-02-07T16:33:25.456Z,7.60
2019-02-07T16:35:54.061Z,5.83
2019-02-07T16:38:22.555Z,7.70
2019-02-07T16:40:51.042Z,11.40
2019-02-07T16:43:19.756Z,11.73
2019-02-07T16:45:48.793Z,10.07
2019-02-07T16:48:17.235Z,10.23
2019-02-07T16:50:46.030Z,7.77
2019-02-07T16:53:14.465Z,9.73
2019-02-07T16:55:42.976Z,8.67
2019-02-07T16:58:11.550Z,8.90
2019-02-07T17:00:40.481Z,11.43
2019-02-07T17:03:09.003Z,7.57
2019-02-07T17:05:38.043Z,9.47
2019-02-07T17:08:06.674Z,7.13
2019-02-07T17:10:35.455Z,8.60
2019-02-07T17:13:05.020Z,11.37
2019-02-07T17:15:33.885Z,9.70
2019-02-07T17:18:02.450Z,11.00
2019-02-07T17:20:30.957Z,11.47
2019-02-07T17:22:59.415Z,11.80
2019-02-07T17:25:28.088Z,6.00
2019-02-07T17:27:56.587Z,10.63
2019-02-07T17:30:25.120Z,12.93
2019-02-07T17:32:53.930Z,8.67
2019-02-07T17:35:22.793Z,12.63
2019-02-07T17:37:51.379Z,8.93
2019-02-07T17:40:20.235Z,9.57
2019-02-07T17:42:54.491Z,10.77
2019-02-07T17:45:24.416Z,6.13
2019-02-07T17:47:58.365Z,7.50
2019-02-07T17:50:31.001Z,8.80
2019-02-07T17:52:59.796Z,6.17
2019-02-07T17:55:28.255Z,9.87
2019-02-07T17:57:56.849Z,11.43
2019-02-07T18:00:49.115Z,11.17
2019-02-07T18:03:17.825Z,8.90
2019-02-07T18:05:46.289Z,10.70
2019-02-07T18:08:14.761Z,12.28
2019-02-07T18:10:43.235Z,8.13
2019-02-07T18:13:11.706Z,10.67
2019-02-07T18:15:40.197Z,13.77
2019-02-07T18:18:08.769Z,7.83
2019-02-07T18:20:37.231Z,11.03
2019-02-07T18:23:05.697Z,10.93
2019-02-07T18:25:34.155Z,9.70
2019-02-07T18:28:03.156Z,10.13
2019-02-07T18:30:31.621Z,5.80
2019-02-07T18:33:00.082Z,7.43
2019-02-07T18:35:28.579Z,10.97
2019-02-07T18:37:57.311Z,9.10
2019-02-07T18:40:26.372Z,10.07
2019-02-07T18:42:55.020Z,10.83
2019-02-07T18:45:23.586Z,6.53
2019-02-07T18:47:52.103Z,6.50
2019-02-07T18:50:24.597Z,11.53
2019-02-07T18:52:53.257Z,6.13
2019-02-07T18:55:21.732Z,8.47
2019-02-07T18:57:50.209Z,7.03
2019-02-07T19:00:20.361Z,9.40
2019-02-07T19:02:48.814Z,5.13
2019-02-07T19:05:17.844Z,11.43
2019-02-07T19:07:46.292Z,8.17
2019-02-07T19:10:15.409Z,8.70
2019-02-07T19:12:43.860Z,7.87
2019-02-07T19:15:13.819Z,8.17
2019-02-07T19:17:43.324Z,9.07
2019-02-07T19:20:13.072Z,11.30
2019-02-07T19:22:41.549Z,12.00
2019-02-07T19:25:10.046Z,10.33
2019-02-07T19:27:39.630Z,11.80
2019-02-07T19:30:11.072Z,10.23
2019-02-07T19:32:39.623Z,9.77
2019-02-07T19:35:08.520Z,7.47
2019-02-07T19:37:37.105Z,8.10
2019-02-07T19:40:06.301Z,10.03
2019-02-07T19:42:34.915Z,9.17
2019-02-07T19:45:04.516Z,6.67
2019-02-07T19:47:33.392Z,9.93
2019-02-07T19:50:01.887Z,8.77
2019-02-07T19:52:30.509Z,10.83
2019-02-07T19:54:58.979Z,9.07
2019-02-07T19:57:27.444Z,13.80
2019-02-07T19:59:56.028Z,11.87
2019-02-07T20:02:24.729Z,6.93
2019-02-07T20:04:53.436Z,8.40
2019-02-07T20:07:21.904Z,7.80
2019-02-07T20:09:50.332Z,5.53
2019-02-07T20:12:18.804Z,6.47
2019-02-07T20:14:47.274Z,7.23
2019-02-07T20:17:15.848Z,6.65
2019-02-07T20:19:44.310Z,8.87
2019-02-07T20:22:20.212Z,9.80
2019-02-07T20:24:46.158Z,8.80
2019-02-07T20:27:13.780Z,8.53
2019-02-07T20:29:42.263Z,9.97
2019-02-07T20:32:11.856Z,6.57
2019-02-07T20:34:40.273Z,7.77
2019-02-07T20:37:08.784Z,7.20
2019-02-07T20:39:38.508Z,8.20
2019-02-07T20:42:06.972Z,5.20
2019-02-07T20:44:35.436Z,5.57
2019-02-07T20:47:05.030Z,6.73
2019-02-07T20:49:35.526Z,6.87
2019-02-07T20:52:05.129Z,9.20
2019-02-07T20:54:33.597Z,3.87
2019-02-07T20:57:02.076Z,7.30
2019-02-07T20:59:30.508Z,4.97
2019-02-07T21:01:59.004Z,7.17
2019-02-07T21:04:27.474Z,4.33
2019-02-07T21:06:57.960Z,5.43
2019-02-07T21:09:32.725Z,9.67
2019-02-07T21:12:01.425Z,8.20
2019-02-07T21:14:29.996Z,6.87
2019-02-07T21:16:58.578Z,7.93
2019-02-07T21:19:28.489Z,5.23
2019-02-07T21:21:57.060Z,11.17
2019-02-07T21:24:25.537Z,7.87
2019-02-07T21:26:54.395Z,7.50
2019-02-07T21:29:22.906Z,8.80
2019-02-07T21:31:51.526Z,10.90
2019-02-07T21:34:20.011Z,8.40
2019-02-07T21:36:48.456Z,4.93
2019-02-07T21:39:17.019Z,7.37
2019-02-07T21:41:45.553Z,8.43
2019-02-07T21:44:13.985Z,8.37
2019-02-07T21:46:42.740Z,7.13
2019-02-07T21:49:11.295Z,8.57
2019-02-07T21:51:41.736Z,5.73
2019-02-07T21:54:10.214Z,9.33
2019-02-07T21:56:39.787Z,6.00
2019-02-07T21:59:08.285Z,5.70
2019-02-07T22:01:36.911Z,7.47
2019-02-07T22:04:05.508Z,7.00
2019-02-07T22:06:33.976Z,6.53
2019-02-07T22:09:03.259Z,6.40
2019-02-07T22:11:32.896Z,8.90
2019-02-07T22:14:01.374Z,6.03
2019-02-07T22:16:29.937Z,6.93
2019-02-07T22:18:58.562Z,6.23
2019-02-07T22:21:27.013Z,8.67
2019-02-07T22:23:55.487Z,5.50
2019-02-07T22:26:23.955Z,12.60
2019-02-07T22:28:52.398Z,8.10
2019-02-07T22:31:20.850Z,5.03
2019-02-07T22:33:49.304Z,7.03
2019-02-07T22:36:17.747Z,7.17
2019-02-07T22:38:46.128Z,5.00
2019-02-07T22:41:14.583Z,8.07
2019-02-07T22:43:43.043Z,7.50
2019-02-07T22:46:11.552Z,11.17
2019-02-07T22:48:40.008Z,5.60
2019-02-07T22:51:08.759Z,7.53
2019-02-07T22:53:37.239Z,6.90
2019-02-07T22:56:05.711Z,7.07
2019-02-07T22:58:34.067Z,6.33
2019-02-07T23:01:21.765Z,8.57
2019-02-07T23:03:54.595Z,5.70
2019-02-07T23:06:23.037Z,9.63
2019-02-07T23:08:51.617Z,7.23
2019-02-07T23:11:20.048Z,10.30
2019-02-07T23:13:48.509Z,5.30
2019-02-07T23:16:16.965Z,3.97
2019-02-07T23:18:45.827Z,10.90
2019-02-07T23:21:14.371Z,6.87
2019-02-07T23:23:42.881Z,4.93
2019-02-07T23:26:11.336Z,10.73
2019-02-07T23:28:39.789Z,6.60
2019-02-07T23:31:08.811Z,10.40
2019-02-07T23:33:37.604Z,4.93
2019-02-07T23:36:06.699Z,12.40
2019-02-07T23:38:35.156Z,7.57
2019-02-07T23:41:04.539Z,8.60
2019-02-07T23:43:33.044Z,8.50
2019-02-07T23:46:01.483Z,8.00
2019-02-07T23:48:29.947Z,4.87
2019-02-07T23:50:58.392Z,10.97
2019-02-07T23:53:29.832Z,8.23
2019-02-07T23:55:58.299Z,10.03
2019-02-07T23:58:26.743Z,5.53
